Time;durP1;ratioP1;P1;durP2;ratioP2;P2;SDS_P1;SDS_P2;PMS_P1;PMS_P2;Temp;Humidity;BMP_temperature;BMP_pressure;BME280_temperature;BME280_humidity;BME280_pressure;Samples;Min_cycle;Max_cycle;Signal;HPM_P1;HPM_P2
2023/04/30 00:01:25;;;;;;;8.10;3.97;;;6.50;99.90;;;;;;5055206;28;20201;-63
2023/04/30 00:03:52;;;;;;;6.50;3.00;;;6.40;99.90;;;;;;5054761;28;20309;-64
2023/04/30 00:06:20;;;;;;;5.90;2.83;;;6.40;99.90;;;;;;5055152;28;20197;-64
2023/04/30 00:08:46;;;;;;;6.63;3.28;;;6.40;99.90;;;;;;5054411;28;20694;-64
2023/04/30 00:11:13;;;;;;;7.80;3.97;;;6.40;99.90;;;;;;5054859;28;20205;-63
2023/04/30 00:13:41;;;;;;;5.32;3.30;;;6.40;99.90;;;;;;5054866;28;20228;-63
2023/04/30 00:16:09;;;;;;;7.15;3.00;;;6.40;99.90;;;;;;5054846;28;20229;-63
2023/04/30 00:18:36;;;;;;;4.05;3.00;;;6.40;99.90;;;;;;5054769;28;20197;-63
2023/04/30 00:21:03;;;;;;;6.38;3.15;;;6.40;99.90;;;;;;5054859;28;20201;-65
2023/04/30 00:23:31;;;;;;;5.75;3.53;;;6.40;99.90;;;;;;5054011;28;20229;-64
2023/04/30 00:25:58;;;;;;;8.75;3.50;;;6.30;99.90;;;;;;5054058;28;20198;-63
2023/04/30 00:28:25;;;;;;;5.25;3.05;;;6.30;99.90;;;;;;5058210;28;20193;-63
2023/04/30 00:30:52;;;;;;;8.95;3.42;;;6.30;99.90;;;;;;5058089;28;20202;-64
2023/04/30 00:33:18;;;;;;;10.20;3.50;;;6.30;99.90;;;;;;5058414;28;20206;-64
2023/04/30 00:35:45;;;;;;;6.03;3.38;;;6.20;99.90;;;;;;5058613;28;20213;-63
2023/04/30 00:38:12;;;;;;;8.43;3.97;;;6.20;99.90;;;;;;5058323;28;20584;-63
2023/04/30 00:40:42;;;;;;;4.10;3.15;;;6.20;99.90;;;;;;5060351;28;20671;-63
2023/04/30 00:43:09;;;;;;;10.55;3.30;;;6.20;99.90;;;;;;5059068;28;20683;-64
2023/04/30 00:45:35;;;;;;;6.20;3.00;;;6.10;99.90;;;;;;5058804;28;20690;-63
2023/04/30 00:48:03;;;;;;;14.48;3.83;;;6.10;99.90;;;;;;5059813;28;20551;-63
2023/04/30 00:50:30;;;;;;;3.80;2.85;;;6.10;99.90;;;;;;5058324;28;20663;-65
2023/04/30 00:52:58;;;;;;;3.72;2.70;;;6.10;99.90;;;;;;5058293;28;20205;-63
2023/04/30 00:55:25;;;;;;;10.23;4.10;;;6.10;99.90;;;;;;5057790;28;20658;-64
2023/04/30 00:57:54;;;;;;;4.57;2.58;;;6.00;99.90;;;;;;5056926;28;20699;-64
2023/04/30 01:00:21;;;;;;;5.93;2.92;;;6.00;99.90;;;;;;5057889;28;20205;-61
2023/04/30 01:02:49;;;;;;;8.93;3.42;;;6.00;99.90;;;;;;5057715;28;20201;-63
2023/04/30 01:05:15;;;;;;;5.22;3.20;;;6.00;99.90;;;;;;5057270;28;20230;-64
2023/04/30 01:07:45;;;;;;;5.60;2.70;;;6.00;99.90;;;;;;5057606;28;20201;-63
2023/04/30 01:10:12;;;;;;;6.75;3.13;;;6.00;99.90;;;;;;5057883;28;20229;-64
2023/04/30 01:12:46;;;;;;;7.88;3.17;;;5.90;99.90;;;;;;5057296;28;20216;-64
2023/04/30 01:15:27;;;;;;;7.45;3.70;;;5.90;99.90;;;;;;5057567;28;20217;-63
2023/04/30 01:17:57;;;;;;;15.13;3.67;;;5.90;99.90;;;;;;5059050;28;20581;-64
2023/04/30 01:20:26;;;;;;;7.15;3.20;;;5.90;99.90;;;;;;5059265;28;20276;-62
2023/04/30 01:22:57;;;;;;;8.95;3.08;;;5.90;99.90;;;;;;5057616;28;20198;-63
2023/04/30 01:25:44;;;;;;;6.90;5.15;;;5.90;99.90;;;;;;5057786;28;20225;-62
2023/04/30 01:28:15;;;;;;;6.05;3.30;;;5.90;99.90;;;;;;5056976;28;20186;-62
2023/04/30 01:30:44;;;;;;;7.65;3.83;;;5.90;99.90;;;;;;5057914;28;20194;-62
2023/04/30 01:33:11;;;;;;;6.18;3.03;;;5.80;99.90;;;;;;5057381;28;20251;-62
2023/04/30 01:36:28;;;;;;;8.60;3.80;;;5.80;99.90;;;;;;5056955;28;20205;-62
2023/04/30 01:39:13;;;;;;;10.45;4.00;;;5.80;99.90;;;;;;4994641;28;20209;-63
2023/04/30 01:41:49;;;;;;;3.50;2.75;;;5.70;99.90;;;;;;4995031;28;20207;-62
2023/04/30 01:44:29;;;;;;;5.00;3.35;;;5.70;99.90;;;;;;5033746;28;20596;-63
2023/04/30 01:47:02;;;;;;;6.32;3.35;;;5.70;99.90;;;;;;5056379;28;20182;-62
2023/04/30 01:49:38;;;;;;;9.05;3.40;;;5.70;99.90;;;;;;5057476;28;20189;-64
2023/04/30 01:52:15;;;;;;;5.47;4.05;;;5.70;99.90;;;;;;5057442;28;20603;-62
2023/04/30 01:54:49;;;;;;;9.85;3.45;;;5.70;99.90;;;;;;5056968;28;20225;-63
2023/04/30 01:57:21;;;;;;;9.68;3.60;;;5.60;99.90;;;;;;5056833;28;20671;-62
2023/04/30 01:59:49;;;;;;;11.27;3.80;;;5.60;99.90;;;;;;5057134;28;20252;-63
2023/04/30 02:02:16;;;;;;;4.50;3.38;;;5.60;99.90;;;;;;5057057;28;20583;-63
2023/04/30 02:04:43;;;;;;;8.38;3.35;;;5.60;99.90;;;;;;5056621;28;20242;-62
2023/04/30 02:07:09;;;;;;;6.45;4.32;;;5.50;99.90;;;;;;5057592;28;20197;-62
2023/04/30 02:09:36;;;;;;;7.13;3.88;;;5.50;99.90;;;;;;5057197;28;20198;-62
2023/04/30 02:12:04;;;;;;;5.43;3.67;;;5.50;99.90;;;;;;5057019;28;20699;-63
2023/04/30 02:14:31;;;;;;;9.60;4.00;;;5.40;99.90;;;;;;5057172;28;20316;-63
2023/04/30 02:16:59;;;;;;;5.60;3.67;;;5.40;99.90;;;;;;5057972;28;20226;-63
2023/04/30 02:19:26;;;;;;;8.35;4.35;;;5.40;99.90;;;;;;5057712;28;20219;-63
2023/04/30 02:21:53;;;;;;;5.05;3.75;;;5.40;99.90;;;;;;5056973;28;20548;-64
2023/04/30 02:24:19;;;;;;;10.57;4.13;;;5.40;99.90;;;;;;5057018;28;20226;-64
2023/04/30 02:26:46;;;;;;;6.93;3.90;;;5.40;99.90;;;;;;5057456;28;20530;-64
2023/04/30 02:29:13;;;;;;;9.82;4.13;;;5.30;99.90;;;;;;5056681;28;20206;-64
2023/04/30 02:31:39;;;;;;;8.45;4.28;;;5.30;99.90;;;;;;5056609;28;20289;-63
2023/04/30 02:34:07;;;;;;;9.65;4.88;;;5.20;99.90;;;;;;5056589;28;20221;-63
2023/04/30 02:36:35;;;;;;;7.60;3.85;;;5.20;99.90;;;;;;5056669;28;20226;-62
2023/04/30 02:39:02;;;;;;;9.18;4.00;;;5.20;99.90;;;;;;5056598;28;20607;-62
2023/04/30 02:41:29;;;;;;;6.07;4.05;;;5.10;99.90;;;;;;5056706;28;20205;-62
2023/04/30 02:43:56;;;;;;;9.15;4.43;;;5.20;99.90;;;;;;5057119;28;20217;-63
2023/04/30 02:46:23;;;;;;;5.00;3.42;;;5.20;99.90;;;;;;5057299;28;20312;-62
2023/04/30 02:48:50;;;;;;;8.77;4.40;;;5.10;99.90;;;;;;5056632;28;20198;-62
2023/04/30 02:51:18;;;;;;;7.93;4.28;;;5.20;99.90;;;;;;5055740;28;20208;-62
2023/04/30 02:53:44;;;;;;;10.90;4.22;;;5.20;99.90;;;;;;5056762;28;20225;-62
2023/04/30 02:56:11;;;;;;;11.45;3.60;;;5.20;99.90;;;;;;5056761;28;20209;-62
2023/04/30 02:58:38;;;;;;;9.35;4.43;;;5.20;99.90;;;;;;5057020;28;20717;-62
2023/04/30 03:01:06;;;;;;;5.45;3.72;;;5.20;99.90;;;;;;5056751;28;20573;-62
2023/04/30 03:06:00;;;;;;;6.65;4.40;;;5.20;99.90;;;;;;5013788;28;20247;-68
2023/04/30 03:08:28;;;;;;;8.80;4.10;;;5.10;99.90;;;;;;5014883;28;20573;-67
2023/04/30 03:10:55;;;;;;;9.68;4.15;;;5.10;99.90;;;;;;5014511;28;20211;-67
2023/04/30 03:13:24;;;;;;;7.00;4.00;;;5.20;99.90;;;;;;5014403;28;20206;-68
2023/04/30 03:15:57;;;;;;;13.70;5.35;;;5.10;99.90;;;;;;5014706;28;20219;-67
2023/04/30 03:18:23;;;;;;;6.10;3.70;;;5.10;99.90;;;;;;5014742;28;20203;-67
2023/04/30 03:20:50;;;;;;;16.55;5.25;;;5.10;99.90;;;;;;5014688;28;20203;-66
2023/04/30 03:23:17;;;;;;;9.15;4.10;;;5.00;99.90;;;;;;5014896;28;20203;-68
2023/04/30 03:25:45;;;;;;;8.15;5.00;;;5.00;99.90;;;;;;5014976;28;20223;-68
2023/04/30 03:28:12;;;;;;;11.02;4.30;;;4.90;99.90;;;;;;5015643;28;20212;-68
2023/04/30 03:30:38;;;;;;;6.78;4.30;;;4.90;99.90;;;;;;5021837;28;20207;-67
2023/04/30 03:33:05;;;;;;;5.10;4.25;;;4.90;99.90;;;;;;5016183;28;20210;-65
2023/04/30 03:35:32;;;;;;;6.07;4.85;;;4.80;99.90;;;;;;5015640;28;20223;-67
2023/04/30 03:37:59;;;;;;;5.18;4.38;;;4.80;99.90;;;;;;5021018;28;20223;-67
2023/04/30 03:40:26;;;;;;;11.25;5.10;;;4.80;99.90;;;;;;5024608;28;20579;-68
2023/04/30 03:42:55;;;;;;;8.25;4.20;;;4.80;99.90;;;;;;5018675;28;20203;-67
2023/04/30 03:45:22;;;;;;;8.63;4.57;;;4.80;99.90;;;;;;5018441;28;20225;-67
2023/04/30 03:47:51;;;;;;;10.75;4.32;;;4.80;99.90;;;;;;5015846;28;20199;-67
2023/04/30 03:50:18;;;;;;;7.35;4.40;;;4.70;99.90;;;;;;5016266;28;20682;-66
2023/04/30 03:52:45;;;;;;;6.63;4.10;;;4.70;99.90;;;;;;5017127;28;20210;-67
2023/04/30 03:55:12;;;;;;;8.38;4.82;;;4.70;99.90;;;;;;5018050;28;20258;-67
2023/04/30 03:57:40;;;;;;;4.95;3.97;;;4.70;99.90;;;;;;5022336;28;20293;-68
2023/04/30 04:00:12;;;;;;;6.85;4.43;;;4.70;99.90;;;;;;5022268;28;20301;-67
2023/04/30 04:02:39;;;;;;;4.45;3.97;;;4.70;99.90;;;;;;5018614;28;20191;-67
2023/04/30 04:05:06;;;;;;;8.85;5.00;;;4.60;99.90;;;;;;5017696;28;20299;-68
2023/04/30 04:07:33;;;;;;;9.65;6.93;;;4.60;99.90;;;;;;5021441;28;20203;-67
2023/04/30 04:11:36;;;;;;;21.65;5.57;;;4.60;99.90;;;;;;5118517;27;1244765;-68
2023/04/30 04:14:03;;;;;;;7.07;5.10;;;4.70;99.90;;;;;;5134761;28;20693;-67
2023/04/30 04:16:30;;;;;;;11.88;5.53;;;4.60;99.90;;;;;;5123173;28;20569;-68
2023/04/30 04:18:56;;;;;;;8.85;5.25;;;4.70;99.90;;;;;;5121834;28;20673;-67
2023/04/30 04:21:23;;;;;;;7.55;5.90;;;4.70;99.90;;;;;;5111883;28;20195;-68
2023/04/30 04:23:50;;;;;;;13.18;6.15;;;4.80;99.90;;;;;;5112073;28;20207;-68
2023/04/30 04:26:20;;;;;;;10.05;6.50;;;5.00;99.90;;;;;;5111079;28;20210;-67
2023/04/30 04:28:48;;;;;;;10.57;5.28;;;5.30;99.90;;;;;;5111545;28;20615;-66
2023/04/30 04:31:15;;;;;;;8.60;5.50;;;5.60;99.90;;;;;;5111832;28;20306;-67
2023/04/30 04:33:42;;;;;;;8.07;5.07;;;5.90;99.90;;;;;;5111623;28;20549;-66
2023/04/30 04:36:09;;;;;;;9.25;4.53;;;6.20;99.90;;;;;;5110554;28;20203;-66
2023/04/30 04:38:36;;;;;;;11.15;4.88;;;6.50;99.90;;;;;;5111054;28;20203;-67
2023/04/30 04:41:03;;;;;;;7.18;4.40;;;6.80;99.90;;;;;;5111115;28;20200;-67
2023/04/30 04:43:29;;;;;;;6.70;4.15;;;7.10;99.90;;;;;;5110916;28;20199;-68
2023/04/30 04:45:58;;;;;;;5.88;3.75;;;7.40;99.90;;;;;;5110793;28;20215;-68
2023/04/30 04:48:25;;;;;;;6.78;3.90;;;7.70;99.90;;;;;;5110688;28;20210;-66
2023/04/30 04:50:51;;;;;;;6.07;3.83;;;7.90;99.90;;;;;;5110261;28;20314;-68
2023/04/30 04:53:18;;;;;;;6.87;4.63;;;8.20;99.90;;;;;;5110636;28;20203;-68
2023/04/30 04:55:45;;;;;;;8.00;4.40;;;8.40;99.90;;;;;;5110502;28;20461;-65
2023/04/30 04:58:12;;;;;;;5.40;4.00;;;8.50;99.90;;;;;;5110442;28;20970;-67
2023/04/30 05:00:39;;;;;;;6.47;4.70;;;8.70;99.90;;;;;;5111026;28;20444;-67
2023/04/30 05:03:09;;;;;;;7.63;3.53;;;8.80;99.90;;;;;;5111366;28;20445;-67
2023/04/30 05:05:35;;;;;;;5.67;3.43;;;8.80;99.90;;;;;;5111760;28;20458;-66
2023/04/30 05:08:02;;;;;;;4.77;3.33;;;8.90;99.90;;;;;;5111109;28;20460;-68
2023/04/30 05:10:29;;;;;;;6.20;3.20;;;9.00;99.90;;;;;;5111060;28;20487;-67
2023/04/30 05:12:56;;;;;;;8.37;3.60;;;9.00;99.90;;;;;;5117479;28;20445;-68
2023/04/30 05:15:22;;;;;;;8.20;3.00;;;9.00;99.90;;;;;;5110900;28;20787;-65
2023/04/30 05:17:49;;;;;;;10.10;3.90;;;8.80;99.90;;;;;;5110883;28;20963;-67
2023/04/30 05:20:17;;;;;;;6.10;3.20;;;8.80;99.90;;;;;;5110376;28;20445;-68
2023/04/30 05:22:44;;;;;;;6.60;3.20;;;8.70;99.90;;;;;;5098263;28;20452;-68
2023/04/30 05:25:11;;;;;;;6.43;3.07;;;8.70;99.90;;;;;;5097066;28;20545;-66
2023/04/30 05:27:38;;;;;;;6.80;2.50;;;8.60;99.90;;;;;;5097074;28;20450;-68
2023/04/30 05:30:06;;;;;;;7.60;3.30;;;8.60;99.90;;;;;;5096752;28;20473;-65
2023/04/30 05:32:32;;;;;;;5.17;3.30;;;8.60;99.90;;;;;;5096684;28;20449;-67
2023/04/30 05:34:59;;;;;;;6.30;3.30;;;8.30;99.90;;;;;;5096416;28;20473;-65
2023/04/30 05:37:27;;;;;;;8.50;3.80;;;8.20;99.90;;;;;;5097258;28;20450;-66
2023/04/30 05:39:54;;;;;;;5.73;3.30;;;8.10;99.90;;;;;;5098032;28;20442;-67
2023/04/30 05:42:21;;;;;;;7.07;3.57;;;8.10;99.90;;;;;;5102978;28;20438;-66
2023/04/30 05:44:48;;;;;;;5.60;3.20;;;8.10;99.90;;;;;;5103830;28;20469;-67
2023/04/30 05:47:15;;;;;;;7.43;3.37;;;8.10;99.90;;;;;;5101430;28;20939;-67
2023/04/30 05:49:42;;;;;;;3.87;2.83;;;8.10;99.90;;;;;;5096745;28;20450;-68
2023/04/30 05:52:09;;;;;;;9.80;3.47;;;8.10;99.90;;;;;;5095779;28;20438;-67
2023/04/30 05:54:37;;;;;;;10.33;3.60;;;8.10;99.90;;;;;;5095694;28;20545;-67
2023/04/30 05:57:04;;;;;;;7.53;3.30;;;8.00;99.90;;;;;;5096011;28;20541;-66
2023/04/30 05:59:31;;;;;;;8.63;3.30;;;8.00;99.90;;;;;;5095491;28;20461;-66
2023/04/30 06:01:58;;;;;;;5.15;3.15;;;7.90;99.90;;;;;;5095694;28;20541;-66
2023/04/30 06:04:24;;;;;;;7.53;3.17;;;7.80;99.90;;;;;;5095372;28;20224;-67
2023/04/30 06:06:51;;;;;;;5.75;3.00;;;7.80;99.90;;;;;;5098415;28;20200;-64
2023/04/30 06:09:18;;;;;;;8.90;3.58;;;7.70;99.90;;;;;;5099392;28;20207;-65
2023/04/30 06:11:49;;;;;;;6.85;3.22;;;7.70;99.90;;;;;;5095170;28;20227;-65
2023/04/30 06:14:16;;;;;;;7.80;3.05;;;7.70;99.90;;;;;;5095352;28;20274;-65
2023/04/30 06:16:43;;;;;;;8.82;3.78;;;7.70;99.90;;;;;;5095338;28;20296;-66
2023/04/30 06:19:10;;;;;;;10.52;3.42;;;7.80;99.90;;;;;;5094905;28;20207;-65
2023/04/30 06:21:36;;;;;;;8.20;3.05;;;7.80;99.50;;;;;;5095045;28;20204;-65
2023/04/30 06:24:03;;;;;;;7.63;3.50;;;7.90;99.00;;;;;;5094642;28;20731;-66
2023/04/30 06:26:30;;;;;;;6.47;3.10;;;7.90;98.40;;;;;;5094830;28;20211;-65
2023/04/30 06:28:58;;;;;;;6.97;2.92;;;7.90;97.90;;;;;;5094955;28;20232;-66
2023/04/30 06:31:25;;;;;;;11.02;3.30;;;8.00;97.50;;;;;;5094489;28;20227;-66
2023/04/30 06:33:52;;;;;;;7.15;2.92;;;8.00;97.10;;;;;;5093783;28;20365;-66
2023/04/30 06:36:19;;;;;;;5.85;2.72;;;8.10;96.40;;;;;;5094757;28;20201;-65
2023/04/30 06:38:46;;;;;;;5.00;2.65;;;8.20;95.50;;;;;;5095396;28;20677;-66
2023/04/30 06:41:14;;;;;;;4.10;3.20;;;8.30;94.70;;;;;;5094763;28;20192;-66
2023/04/30 06:43:41;;;;;;;9.10;3.05;;;8.30;93.90;;;;;;5094855;28;20219;-65
2023/04/30 06:46:09;;;;;;;6.88;3.13;;;8.40;93.30;;;;;;5094778;28;20207;-65
2023/04/30 06:48:36;;;;;;;7.07;2.65;;;8.40;92.40;;;;;;5097091;28;20295;-65
2023/04/30 06:51:02;;;;;;;6.93;2.75;;;8.40;91.60;;;;;;5097265;28;20220;-65
2023/04/30 06:53:29;;;;;;;4.53;2.20;;;8.50;90.90;;;;;;5095256;28;20207;-64
2023/04/30 06:55:56;;;;;;;10.35;3.72;;;8.50;90.60;;;;;;5096410;28;20247;-66
2023/04/30 06:58:23;;;;;;;4.80;2.70;;;8.60;90.00;;;;;;5095765;28;20200;-65
2023/04/30 07:00:49;;;;;;;5.40;2.45;;;8.70;88.40;;;;;;5094861;28;20269;-65
2023/04/30 07:03:18;;;;;;;5.68;2.58;;;8.70;87.10;;;;;;5094466;28;20208;-65
2023/04/30 07:05:44;;;;;;;5.70;2.88;;;8.80;85.90;;;;;;5093872;28;20230;-66
2023/04/30 07:08:11;;;;;;;4.20;2.40;;;8.90;85.20;;;;;;5094416;28;20280;-65
2023/04/30 07:10:38;;;;;;;5.80;2.90;;;8.90;84.30;;;;;;5093783;28;20348;-67
2023/04/30 07:13:06;;;;;;;4.10;2.63;;;9.00;82.80;;;;;;5100463;28;20200;-65
2023/04/30 07:15:33;;;;;;;6.45;2.80;;;9.00;82.00;;;;;;5096281;28;20220;-66
2023/04/30 07:18:00;;;;;;;11.15;3.72;;;9.00;81.80;;;;;;5093977;28;20207;-65
2023/04/30 07:20:28;;;;;;;6.78;2.83;;;9.00;81.40;;;;;;5094261;28;20208;-68
2023/04/30 07:22:55;;;;;;;12.85;3.30;;;9.10;80.60;;;;;;5094286;28;20204;-66
2023/04/30 07:25:22;;;;;;;5.63;2.75;;;9.10;79.50;;;;;;5094250;28;20224;-66
2023/04/30 07:27:48;;;;;;;5.03;2.85;;;9.00;79.00;;;;;;5094122;28;20269;-66
2023/04/30 07:30:15;;;;;;;6.13;2.80;;;9.00;79.30;;;;;;5093672;28;20531;-67
2023/04/30 07:32:42;;;;;;;6.65;3.10;;;9.00;79.20;;;;;;5094119;28;20196;-66
2023/04/30 07:35:09;;;;;;;7.53;3.28;;;9.00;78.40;;;;;;5093887;28;20303;-66
2023/04/30 07:37:37;;;;;;;10.10;3.00;;;9.10;77.90;;;;;;5093670;28;20207;-66
2023/04/30 07:40:06;;;;;;;8.20;2.72;;;9.20;78.10;;;;;;5093369;28;20579;-67
2023/04/30 07:42:33;;;;;;;7.30;3.53;;;9.40;77.60;;;;;;5100935;28;20203;-65
2023/04/30 07:45:00;;;;;;;10.05;2.97;;;9.70;76.80;;;;;;5093840;28;20226;-65
2023/04/30 07:47:27;;;;;;;8.32;2.97;;;10.00;74.20;;;;;;5094315;28;20659;-65
2023/04/30 07:49:53;;;;;;;4.47;2.63;;;10.30;72.80;;;;;;5097112;28;20262;-63
2023/04/30 07:52:20;;;;;;;8.67;3.40;;;10.50;71.00;;;;;;5093575;28;20485;-63
2023/04/30 07:54:48;;;;;;;7.53;3.10;;;10.60;69.70;;;;;;5093450;28;20975;-63
2023/04/30 07:57:15;;;;;;;6.70;3.20;;;10.60;68.40;;;;;;5094322;28;20446;-64
2023/04/30 07:59:50;;;;;;;7.17;3.23;;;10.60;67.90;;;;;;5094569;28;20442;-64
2023/04/30 08:02:17;;;;;;;7.80;3.77;;;10.70;68.00;;;;;;5097087;28;20912;-63
2023/04/30 08:04:44;;;;;;;5.70;2.30;;;10.90;67.60;;;;;;5098057;28;20462;-63
2023/04/30 08:07:11;;;;;;;7.43;2.40;;;11.00;66.80;;;;;;5096693;28;20457;-63
2023/04/30 08:09:38;;;;;;;7.67;2.53;;;11.10;65.90;;;;;;5098526;28;20448;-64
2023/04/30 08:12:06;;;;;;;9.03;2.87;;;11.30;65.20;;;;;;5097393;28;20474;-62
2023/04/30 08:14:33;;;;;;;6.70;3.17;;;11.40;63.90;;;;;;5098365;28;20816;-63
2023/04/30 08:17:01;;;;;;;8.20;2.80;;;11.50;63.00;;;;;;5097374;28;20446;-63
2023/04/30 08:19:28;;;;;;;7.90;3.10;;;11.50;62.30;;;;;;5098365;28;20499;-65
2023/04/30 08:21:55;;;;;;;5.73;2.83;;;11.50;62.20;;;;;;5097491;28;20448;-64
2023/04/30 08:24:24;;;;;;;7.83;3.47;;;11.50;61.90;;;;;;5096795;28;20472;-66
2023/04/30 08:26:57;;;;;;;6.20;2.47;;;11.60;61.00;;;;;;5094925;28;20450;-65
2023/04/30 08:29:26;;;;;;;7.43;3.10;;;11.60;60.50;;;;;;5094183;28;20433;-64
2023/04/30 08:31:53;;;;;;;5.67;2.83;;;11.70;59.90;;;;;;5093770;28;20569;-65
2023/04/30 08:34:20;;;;;;;5.53;2.20;;;11.70;59.50;;;;;;5093520;28;20467;-65
2023/04/30 08:36:46;;;;;;;6.43;2.70;;;11.60;59.30;;;;;;5098145;28;20446;-65
2023/04/30 08:39:14;;;;;;;6.47;3.57;;;11.70;59.10;;;;;;5097691;28;20442;-65
2023/04/30 08:41:45;;;;;;;9.43;3.33;;;11.70;58.50;;;;;;5092975;28;20891;-65
2023/04/30 08:44:12;;;;;;;5.57;3.20;;;11.70;58.20;;;;;;5093256;28;20462;-63
2023/04/30 08:46:43;;;;;;;7.20;2.70;;;11.70;58.10;;;;;;5092770;28;20814;-64
2023/04/30 08:49:10;;;;;;;4.03;2.80;;;11.80;58.00;;;;;;5093972;28;20426;-64
2023/04/30 08:51:39;;;;;;;9.23;3.50;;;11.80;57.60;;;;;;5094618;28;20478;-65
2023/04/30 08:54:06;;;;;;;7.40;2.93;;;12.00;57.40;;;;;;5095089;28;20458;-64
2023/04/30 08:56:34;;;;;;;5.27;2.40;;;12.10;56.90;;;;;;5095163;28;20446;-65
2023/04/30 08:59:00;;;;;;;5.97;2.60;;;11.90;55.60;;;;;;5098517;28;20658;-66
2023/04/30 09:01:29;;;;;;;6.27;2.70;;;11.80;55.80;;;;;;5099120;28;20446;-65
2023/04/30 09:03:57;;;;;;;6.43;3.00;;;11.70;56.20;;;;;;5099556;28;20508;-64
2023/04/30 09:06:26;;;;;;;8.73;2.90;;;11.80;56.20;;;;;;5099228;28;20443;-65
2023/04/30 09:08:53;;;;;;;4.90;2.57;;;11.90;55.90;;;;;;5099736;28;20452;-65
2023/04/30 09:11:27;;;;;;;7.40;2.50;;;12.10;56.20;;;;;;5103355;28;20531;-65
2023/04/30 09:13:56;;;;;;;10.80;3.30;;;12.20;55.00;;;;;;5099176;28;20468;-64
2023/04/30 09:16:23;;;;;;;6.23;2.67;;;12.30;54.80;;;;;;5098309;28;20442;-63
2023/04/30 09:18:50;;;;;;;9.23;3.70;;;12.30;54.30;;;;;;5097166;28;20446;-65
2023/04/30 09:21:31;;;;;;;5.00;2.83;;;12.30;53.90;;;;;;5087316;22;21023;-61
2023/04/30 09:24:00;;;;;;;5.30;3.53;;;12.40;53.70;;;;;;5057162;28;20769;-61
2023/04/30 09:26:30;;;;;;;6.00;2.67;;;12.50;53.30;;;;;;5056702;28;20498;-61
2023/04/30 09:28:58;;;;;;;4.80;2.27;;;12.60;52.90;;;;;;5057162;28;20474;-60
2023/04/30 09:31:25;;;;;;;5.13;2.63;;;12.60;52.40;;;;;;5072269;28;20483;-60
2023/04/30 09:33:53;;;;;;;12.37;2.50;;;12.70;52.00;;;;;;5077460;28;20508;-60
2023/04/30 09:36:21;;;;;;;4.20;2.63;;;12.70;51.60;;;;;;5076958;28;20435;-62
2023/04/30 09:38:48;;;;;;;5.80;3.13;;;12.80;51.30;;;;;;5077216;28;20447;-62
2023/04/30 09:41:22;;;;;;;7.03;3.03;;;13.00;51.00;;;;;;5076602;28;20995;-61
2023/04/30 09:43:49;;;;;;;6.87;2.13;;;13.10;50.30;;;;;;5076602;28;20450;-61
2023/04/30 09:46:18;;;;;;;6.03;2.20;;;13.10;49.50;;;;;;5076928;28;20447;-61
2023/04/30 09:48:45;;;;;;;6.40;2.67;;;13.00;48.90;;;;;;5076717;28;20956;-61
2023/04/30 09:51:12;;;;;;;3.50;2.20;;;12.90;48.40;;;;;;5076502;28;20467;-60
2023/04/30 09:53:42;;;;;;;5.97;2.63;;;12.90;48.10;;;;;;5076121;28;20815;-60
2023/04/30 09:56:11;;;;;;;7.30;2.17;;;13.00;47.90;;;;;;5075911;28;20797;-61
2023/04/30 09:58:39;;;;;;;4.93;2.20;;;13.10;47.70;;;;;;5075991;28;20450;-61
2023/04/30 10:01:10;;;;;;;4.70;2.70;;;13.20;47.60;;;;;;5076191;28;20996;-62
2023/04/30 10:03:40;;;;;;;4.27;2.33;;;13.20;47.30;;;;;;5076762;28;20482;-62
2023/04/30 10:06:07;;;;;;;5.80;2.30;;;13.20;47.10;;;;;;5076739;28;20438;-62
2023/04/30 10:08:41;;;;;;;4.03;2.30;;;13.20;46.90;;;;;;5077680;28;20447;-61
2023/04/30 10:11:08;;;;;;;5.73;2.20;;;13.40;46.80;;;;;;5076831;28;20968;-62
2023/04/30 10:13:41;;;;;;;3.67;2.30;;;13.50;46.50;;;;;;5076284;28;20450;-61
2023/04/30 10:16:17;;;;;;;5.17;3.23;;;13.60;46.00;;;;;;5076284;28;20432;-63
2023/04/30 10:18:48;;;;;;;6.50;2.13;;;13.60;45.60;;;;;;5076668;28;20897;-61
2023/04/30 10:21:17;;;;;;;4.13;1.90;;;13.60;45.50;;;;;;5077028;28;20984;-62
2023/04/30 10:23:46;;;;;;;7.03;2.50;;;13.70;45.40;;;;;;5076752;28;20497;-61
2023/04/30 10:26:15;;;;;;;4.00;2.53;;;13.80;45.10;;;;;;5076964;28;20822;-60
2023/04/30 10:28:42;;;;;;;5.37;2.40;;;13.90;44.70;;;;;;5077966;28;20447;-61
2023/04/30 10:31:10;;;;;;;3.60;2.07;;;14.10;44.30;;;;;;5075155;28;20459;-60
2023/04/30 10:33:48;;;;;;;7.00;2.60;;;14.00;43.50;;;;;;5075925;28;20439;-60
2023/04/30 10:36:23;;;;;;;3.77;2.27;;;13.90;43.20;;;;;;5075811;28;20962;-61
2023/04/30 10:38:53;;;;;;;7.73;2.70;;;13.90;43.20;;;;;;5075960;28;20427;-60
2023/04/30 10:41:20;;;;;;;9.80;2.67;;;13.90;43.10;;;;;;5075603;28;20463;-61
2023/04/30 10:43:48;;;;;;;4.10;2.20;;;14.00;43.20;;;;;;5076537;28;20836;-59
2023/04/30 10:46:23;;;;;;;3.90;2.00;;;14.10;43.20;;;;;;5076049;28;20447;-60
2023/04/30 10:48:50;;;;;;;7.67;3.67;;;14.10;43.70;;;;;;5076215;28;20484;-61
2023/04/30 10:51:17;;;;;;;5.23;2.20;;;14.20;43.10;;;;;;5075846;28;20481;-61
2023/04/30 10:53:45;;;;;;;3.87;2.40;;;14.20;42.80;;;;;;5076917;28;20446;-61
2023/04/30 10:56:14;;;;;;;4.60;2.27;;;14.20;43.70;;;;;;5075889;28;20815;-61
2023/04/30 10:58:42;;;;;;;5.57;2.20;;;14.20;43.00;;;;;;5076434;28;20457;-61
2023/04/30 11:01:12;;;;;;;3.40;2.23;;;14.30;43.10;;;;;;5076475;28;20471;-61
2023/04/30 11:03:42;;;;;;;4.33;2.70;;;14.50;43.00;;;;;;5077192;28;20448;-62
2023/04/30 11:06:12;;;;;;;4.80;2.20;;;14.70;42.50;;;;;;5076875;28;20505;-61
2023/04/30 11:08:40;;;;;;;5.30;2.77;;;15.00;42.00;;;;;;5077910;28;20467;-61
2023/04/30 11:11:09;;;;;;;5.90;2.10;;;15.10;41.30;;;;;;5078004;28;20531;-60
2023/04/30 11:13:41;;;;;;;4.77;2.20;;;15.20;40.50;;;;;;5077930;28;20518;-60
2023/04/30 11:16:08;;;;;;;6.77;2.20;;;15.10;40.00;;;;;;5075342;28;20466;-60
2023/04/30 11:18:41;;;;;;;3.70;2.13;;;15.00;39.50;;;;;;5076063;28;20537;-61
2023/04/30 11:21:09;;;;;;;8.83;2.63;;;14.80;39.60;;;;;;5075307;28;20471;-61
2023/04/30 11:23:36;;;;;;;4.10;2.50;;;14.80;39.80;;;;;;5076056;28;20446;-61
2023/04/30 11:26:03;;;;;;;5.27;2.73;;;15.00;39.40;;;;;;5076410;28;20439;-59
2023/04/30 11:28:34;;;;;;;6.13;2.30;;;15.20;38.90;;;;;;5078323;28;20504;-60
2023/04/30 11:31:03;;;;;;;2.53;1.70;;;15.20;38.60;;;;;;5080624;28;20463;-61
2023/04/30 11:33:31;;;;;;;7.33;3.10;;;15.30;38.70;;;;;;5080362;28;20478;-61
2023/04/30 11:35:59;;;;;;;4.50;2.70;;;15.40;38.20;;;;;;5080861;28;20456;-62
2023/04/30 11:38:29;;;;;;;7.23;2.63;;;15.50;37.90;;;;;;5081504;28;20509;-61
2023/04/30 11:40:56;;;;;;;9.17;3.00;;;15.60;37.70;;;;;;5081216;28;20467;-60
2023/04/30 11:43:24;;;;;;;4.13;2.20;;;15.80;37.00;;;;;;5080499;28;20807;-60
2023/04/30 11:46:07;;;;;;;5.90;2.40;;;15.90;36.40;;;;;;5079266;28;20515;-61
2023/04/30 11:48:34;;;;;;;8.73;3.20;;;16.20;35.90;;;;;;5077051;28;20459;-59
2023/04/30 11:51:06;;;;;;;5.83;2.20;;;16.60;35.30;;;;;;5076382;28;20473;-59
2023/04/30 11:53:33;;;;;;;2.60;2.00;;;17.20;34.80;;;;;;5075734;28;20545;-60
2023/04/30 11:56:03;;;;;;;4.50;2.00;;;17.90;33.90;;;;;;5075435;28;20443;-61
2023/04/30 11:58:34;;;;;;;7.40;3.00;;;18.50;33.10;;;;;;5074953;28;20482;-60
2023/04/30 12:01:01;;;;;;;2.93;2.30;;;19.00;32.50;;;;;;5076834;28;20912;-61
2023/04/30 12:03:29;;;;;;;3.53;2.50;;;19.30;32.40;;;;;;5074814;28;20444;-61
2023/04/30 12:05:56;;;;;;;7.80;2.80;;;19.50;32.20;;;;;;5075285;28;20451;-60
2023/04/30 12:08:23;;;;;;;4.53;2.30;;;19.60;31.80;;;;;;5074979;28;20522;-61
2023/04/30 12:10:50;;;;;;;4.47;2.47;;;19.70;31.40;;;;;;5075344;28;20463;-60
2023/04/30 12:13:17;;;;;;;2.80;2.10;;;19.70;30.90;;;;;;5075324;28;20486;-61
2023/04/30 12:15:58;;;;;;;6.87;2.53;;;19.80;30.60;;;;;;5075704;28;20459;-60
2023/04/30 12:18:25;;;;;;;3.80;2.67;;;19.70;30.20;;;;;;5074959;28;20427;-59
2023/04/30 12:20:53;;;;;;;5.23;2.43;;;19.60;30.20;;;;;;5074742;28;20482;-60
2023/04/30 12:23:20;;;;;;;3.27;2.30;;;19.50;30.80;;;;;;5075368;28;20816;-60
2023/04/30 12:25:47;;;;;;;3.30;2.13;;;19.40;30.30;;;;;;5074780;28;20953;-60
2023/04/30 12:28:14;;;;;;;4.50;2.50;;;19.10;31.00;;;;;;5074880;28;20450;-61
2023/04/30 12:30:43;;;;;;;3.90;1.83;;;18.60;30.70;;;;;;5074186;28;20463;-61
2023/04/30 12:33:11;;;;;;;3.57;2.17;;;18.00;31.30;;;;;;5078188;28;20479;-61
2023/04/30 12:35:42;;;;;;;5.90;1.80;;;17.50;31.70;;;;;;5078757;28;20468;-60
2023/04/30 12:38:11;;;;;;;3.60;2.30;;;17.20;32.10;;;;;;5078158;28;20427;-60
2023/04/30 12:40:38;;;;;;;4.80;2.53;;;16.70;32.40;;;;;;5077879;28;20467;-60
2023/04/30 12:43:07;;;;;;;6.83;2.17;;;16.40;33.00;;;;;;5077661;28;20858;-61
2023/04/30 12:45:45;;;;;;;3.70;2.20;;;16.20;33.40;;;;;;5077896;28;21048;-62
2023/04/30 12:48:12;;;;;;;6.30;2.63;;;16.20;33.90;;;;;;5078367;28;20520;-60
2023/04/30 12:50:39;;;;;;;3.80;2.20;;;16.20;33.80;;;;;;5077510;28;20463;-60
2023/04/30 12:53:06;;;;;;;4.13;1.93;;;16.30;33.70;;;;;;5077045;28;20481;-60
2023/04/30 12:55:36;;;;;;;5.50;2.90;;;16.40;33.70;;;;;;5076785;28;20996;-60
2023/04/30 12:58:04;;;;;;;5.50;2.60;;;16.40;33.40;;;;;;5076872;28;20481;-60
2023/04/30 13:00:46;;;;;;;4.83;2.20;;;16.40;33.80;;;;;;5077586;28;20463;-60
2023/04/30 13:03:14;;;;;;;7.20;2.17;;;16.60;34.10;;;;;;5077458;28;20442;-60